createdAt,value
2018-03-28T00:01:00.599Z,8.2
2018-03-28T00:02:01.991Z,8.2
2018-03-28T00:03:03.390Z,8.0
2018-03-28T00:04:04.777Z,8.2
2018-03-28T00:05:06.158Z,8.1
2018-03-28T00:06:07.538Z,8.1
2018-03-28T00:07:08.933Z,8.1
2018-03-28T00:08:10.314Z,8.2
2018-03-28T00:09:11.695Z,8.1
2018-03-28T00:10:13.079Z,8.1
2018-03-28T00:11:14.487Z,8.1
2018-03-28T00:12:15.862Z,8.2
2018-03-28T00:13:17.244Z,8.0
2018-03-28T00:14:18.619Z,8.0
2018-03-28T00:15:20.068Z,7.8
2018-03-28T00:16:21.454Z,7.7
2018-03-28T00:17:22.835Z,7.6
2018-03-28T00:18:24.221Z,7.7
2018-03-28T00:19:25.601Z,7.5
2018-03-28T00:20:26.981Z,7.7
2018-03-28T00:21:28.362Z,7.6
2018-03-28T00:22:29.746Z,7.4
2018-03-28T00:23:31.125Z,7.6
2018-03-28T00:24:32.574Z,7.6
2018-03-28T00:25:33.952Z,7.3
2018-03-28T00:26:35.338Z,7.3
2018-03-28T00:27:36.724Z,7.5
2018-03-28T00:28:38.111Z,7.5
2018-03-28T00:29:39.491Z,7.3
2018-03-28T00:30:40.874Z,7.3
2018-03-28T00:31:42.255Z,7.4
2018-03-28T00:32:43.640Z,7.4
2018-03-28T00:33:45.030Z,7.4
2018-03-28T00:34:46.405Z,7.4
2018-03-28T00:35:47.844Z,7.5
2018-03-28T00:36:49.224Z,7.4
2018-03-28T00:37:50.616Z,7.5
2018-03-28T00:38:52.003Z,7.5
2018-03-28T00:39:53.390Z,7.5
2018-03-28T00:40:54.770Z,7.4
2018-03-28T00:41:56.151Z,7.4
2018-03-28T00:42:57.532Z,7.3
2018-03-28T00:43:58.907Z,7.3
2018-03-28T00:45:00.393Z,7.5
2018-03-28T00:46:01.769Z,7.6
2018-03-28T00:47:03.153Z,7.4
2018-03-28T00:48:04.544Z,7.3
2018-03-28T00:49:05.917Z,7.3
2018-03-28T00:50:07.298Z,7.3
2018-03-28T00:51:08.685Z,7.0
2018-03-28T00:52:10.077Z,7.0
2018-03-28T00:53:11.461Z,7.2
2018-03-28T00:54:12.861Z,7.2
2018-03-28T00:55:14.240Z,7.4
2018-03-28T00:56:15.725Z,7.2
2018-03-28T00:57:17.099Z,7.3
2018-03-28T00:58:18.478Z,7.3
2018-03-28T00:59:19.856Z,7.2
2018-03-28T01:00:21.238Z,7.3
2018-03-28T01:01:22.622Z,7.2
2018-03-28T01:02:24.004Z,7.2
2018-03-28T01:03:25.388Z,7.1
2018-03-28T01:04:26.755Z,7.0
2018-03-28T01:05:28.176Z,7.2
2018-03-28T01:06:29.556Z,7.4
2018-03-28T01:07:30.943Z,7.2
2018-03-28T01:08:32.328Z,7.2
2018-03-28T01:09:33.708Z,7.1
2018-03-28T01:10:35.086Z,7.1
2018-03-28T01:11:36.467Z,7.2
2018-03-28T01:12:37.850Z,7.2
2018-03-28T01:13:39.239Z,7.2
2018-03-28T01:14:40.617Z,7.1
2018-03-28T01:15:42.006Z,7.0
2018-03-28T01:16:43.463Z,7.1
2018-03-28T01:17:44.840Z,7.2
2018-03-28T01:18:46.223Z,7.1
2018-03-28T01:19:47.603Z,7.1
2018-03-28T01:20:48.983Z,7.1
2018-03-28T01:21:50.392Z,7.2
2018-03-28T01:22:51.773Z,7.0
2018-03-28T01:23:53.158Z,7.2
2018-03-28T01:24:54.541Z,7.1
2018-03-28T01:25:55.921Z,7.0
2018-03-28T01:26:57.304Z,7.2
2018-03-28T01:27:58.687Z,7.2
2018-03-28T01:29:00.117Z,7.1
2018-03-28T01:30:01.496Z,7.0
2018-03-28T01:31:02.873Z,7.1
2018-03-28T01:32:04.257Z,7.1
2018-03-28T01:33:05.640Z,7.1
2018-03-28T01:34:07.021Z,7.3
2018-03-28T01:35:09.100Z,7.2
2018-03-28T01:36:10.493Z,7.2
2018-03-28T01:37:11.974Z,7.3
2018-03-28T01:38:13.351Z,7.3
2018-03-28T01:39:14.734Z,7.3
2018-03-28T01:40:16.115Z,7.0
2018-03-28T01:41:17.518Z,7.1
2018-03-28T01:42:18.871Z,7.1
2018-03-28T01:43:20.270Z,7.2
2018-03-28T01:44:21.655Z,7.1
2018-03-28T01:45:23.033Z,7.1
2018-03-28T01:46:24.424Z,7.1
2018-03-28T01:47:25.803Z,7.1
2018-03-28T01:48:27.188Z,7.0
2018-03-28T01:49:28.569Z,7.1
2018-03-28T01:50:29.954Z,7.1
2018-03-28T01:51:31.342Z,7.0
2018-03-28T01:52:32.720Z,6.9
2018-03-28T01:53:34.111Z,6.9
2018-03-28T01:54:35.496Z,7.0
2018-03-28T01:55:36.881Z,7.0
2018-03-28T01:56:38.270Z,7.1
2018-03-28T01:57:39.710Z,7.1
2018-03-28T01:58:41.096Z,7.0
2018-03-28T01:59:42.475Z,7.0
2018-03-28T02:00:43.859Z,7.0
2018-03-28T02:01:45.242Z,7.0
2018-03-28T02:02:46.614Z,6.8
2018-03-28T02:03:48.001Z,6.8
2018-03-28T02:04:49.462Z,7.1
2018-03-28T02:05:50.849Z,7.1
2018-03-28T02:06:52.279Z,7.0
2018-03-28T02:07:53.612Z,6.9
2018-03-28T02:08:54.990Z,6.9
2018-03-28T02:09:56.371Z,6.8
2018-03-28T02:10:57.759Z,7.0
2018-03-28T02:11:59.136Z,7.1
2018-03-28T02:13:00.555Z,7.1
2018-03-28T02:14:01.941Z,7.2
2018-03-28T02:15:03.331Z,7.1
2018-03-28T02:16:04.722Z,7.1
2018-03-28T02:17:06.099Z,7.0
2018-03-28T02:18:07.531Z,7.1
2018-03-28T02:19:08.910Z,7.0
2018-03-28T02:20:10.293Z,7.0
2018-03-28T02:21:11.736Z,6.8
2018-03-28T02:22:13.061Z,7.1
2018-03-28T02:23:14.438Z,7.0
2018-03-28T02:24:15.823Z,7.0
2018-03-28T02:25:17.206Z,7.1
2018-03-28T02:26:18.585Z,7.1
2018-03-28T02:27:19.972Z,7.1
2018-03-28T02:28:21.336Z,7.0
2018-03-28T02:29:22.772Z,7.1
2018-03-28T02:30:24.147Z,7.0
2018-03-28T02:31:25.524Z,6.8
2018-03-28T02:32:26.903Z,7.0
2018-03-28T02:33:28.285Z,7.0
2018-03-28T02:34:29.664Z,7.1
2018-03-28T02:35:31.052Z,6.9
2018-03-28T02:36:32.433Z,7.0
2018-03-28T02:37:33.822Z,7.0
2018-03-28T02:38:35.251Z,6.8
2018-03-28T02:39:36.638Z,6.9
2018-03-28T02:40:38.025Z,6.8
2018-03-28T02:41:39.405Z,6.8
2018-03-28T02:42:40.780Z,6.8
2018-03-28T02:43:42.169Z,6.9
2018-03-28T02:44:43.551Z,6.6
2018-03-28T02:45:44.925Z,6.8
2018-03-28T02:46:46.319Z,6.8
2018-03-28T02:47:47.693Z,6.8
2018-03-28T02:48:49.083Z,6.8
2018-03-28T02:49:50.464Z,6.9
2018-03-28T02:50:51.844Z,6.8
2018-03-28T02:51:53.225Z,6.9
2018-03-28T02:52:54.604Z,6.9
2018-03-28T02:53:55.990Z,6.9
2018-03-28T02:54:57.369Z,7.0
2018-03-28T02:55:58.748Z,7.1
2018-03-28T02:57:00.161Z,7.0
2018-03-28T02:58:01.550Z,6.9
2018-03-28T02:59:02.988Z,6.9
2018-03-28T03:00:04.368Z,7.0
2018-03-28T03:01:05.753Z,7.1
2018-03-28T03:02:07.142Z,7.1
2018-03-28T03:03:08.527Z,7.0
2018-03-28T03:04:09.931Z,7.0
2018-03-28T03:05:11.315Z,7.0
2018-03-28T03:06:12.698Z,7.0
2018-03-28T03:07:14.083Z,6.9
2018-03-28T03:08:15.457Z,7.0
2018-03-28T03:09:16.836Z,6.9
2018-03-28T03:10:18.218Z,6.8
2018-03-28T03:11:19.599Z,6.9
2018-03-28T03:12:21.022Z,7.0
2018-03-28T03:13:22.401Z,6.8
2018-03-28T03:14:23.783Z,6.9
2018-03-28T03:15:25.164Z,7.0
2018-03-28T03:16:26.544Z,7.0
2018-03-28T03:17:27.922Z,7.2
2018-03-28T03:18:29.307Z,7.1
2018-03-28T03:19:30.733Z,7.1
2018-03-28T03:20:32.120Z,7.0
2018-03-28T03:21:33.496Z,7.0
2018-03-28T03:22:34.882Z,6.8
2018-03-28T03:23:36.270Z,6.9
2018-03-28T03:24:37.653Z,6.8
2018-03-28T03:25:39.038Z,6.8
2018-03-28T03:26:40.422Z,6.9
2018-03-28T03:27:41.811Z,6.9
2018-03-28T03:28:43.201Z,6.9
2018-03-28T03:29:44.586Z,7.0
2018-03-28T03:30:45.959Z,7.0
2018-03-28T03:31:47.348Z,7.1
2018-03-28T03:32:48.733Z,7.1
2018-03-28T03:33:50.115Z,7.1
2018-03-28T03:34:51.495Z,7.1
2018-03-28T03:35:52.875Z,7.1
2018-03-28T03:36:54.326Z,7.1
2018-03-28T03:37:55.640Z,7.0
2018-03-28T03:38:57.020Z,7.0
2018-03-28T03:39:58.478Z,7.0
2018-03-28T03:40:59.858Z,7.0
2018-03-28T03:42:01.237Z,7.1
2018-03-28T03:43:02.615Z,7.0
2018-03-28T03:44:03.999Z,7.1
2018-03-28T03:45:05.389Z,7.1
2018-03-28T03:46:06.779Z,7.0
2018-03-28T03:47:08.154Z,7.1
2018-03-28T03:48:09.533Z,7.1
2018-03-28T03:49:10.925Z,7.1
2018-03-28T03:50:12.298Z,6.9
2018-03-28T03:51:13.705Z,7.1
2018-03-28T03:52:15.069Z,7.0
2018-03-28T03:53:16.455Z,7.0
2018-03-28T03:54:17.838Z,7.2
2018-03-28T03:55:19.221Z,7.2
2018-03-28T03:56:20.614Z,7.2
2018-03-28T03:57:21.983Z,7.1
2018-03-28T03:58:23.361Z,7.1
2018-03-28T03:59:24.754Z,7.2
2018-03-28T04:00:26.210Z,7.2
2018-03-28T04:01:27.587Z,7.1
2018-03-28T04:02:28.965Z,7.1
2018-03-28T04:03:30.344Z,7.0
2018-03-28T04:04:31.731Z,7.1
2018-03-28T04:05:33.115Z,7.2
2018-03-28T04:06:34.487Z,7.2
2018-03-28T04:07:35.903Z,7.1
2018-03-28T04:08:37.263Z,7.1
2018-03-28T04:09:38.726Z,7.1
2018-03-28T04:10:40.054Z,7.1
2018-03-28T04:11:41.436Z,7.1
2018-03-28T04:12:42.815Z,7.1
2018-03-28T04:13:44.207Z,7.1
2018-03-28T04:14:45.587Z,7.0
2018-03-28T04:15:46.970Z,7.0
2018-03-28T04:16:48.363Z,7.1
2018-03-28T04:17:49.755Z,7.3
2018-03-28T04:18:51.132Z,7.2
2018-03-28T04:19:52.511Z,7.3
2018-03-28T04:20:53.978Z,7.3
2018-03-28T04:21:55.367Z,7.3
2018-03-28T04:22:56.738Z,7.4
2018-03-28T04:23:58.113Z,7.3
2018-03-28T04:24:59.499Z,7.3
2018-03-28T04:26:00.880Z,7.2
2018-03-28T04:27:02.267Z,7.2
2018-03-28T04:28:03.647Z,7.3
2018-03-28T04:29:05.032Z,7.4
2018-03-28T04:30:06.513Z,7.3
2018-03-28T04:31:07.866Z,7.3
2018-03-28T04:32:09.249Z,7.3
2018-03-28T04:33:10.632Z,7.2
2018-03-28T04:34:12.015Z,7.5
2018-03-28T04:35:13.394Z,7.4
2018-03-28T04:36:14.790Z,7.4
2018-03-28T04:37:16.172Z,7.5
2018-03-28T04:38:17.554Z,7.5
2018-03-28T04:39:18.946Z,7.5
2018-03-28T04:40:20.330Z,7.4
2018-03-28T04:41:21.795Z,7.5
2018-03-28T04:42:23.173Z,7.4
2018-03-28T04:43:24.553Z,7.3
2018-03-28T04:44:25.930Z,7.4
2018-03-28T04:45:27.307Z,7.4
2018-03-28T04:46:28.687Z,7.5
2018-03-28T04:47:30.073Z,7.4
2018-03-28T04:48:31.448Z,7.4
2018-03-28T04:49:32.826Z,7.4
2018-03-28T04:50:34.272Z,7.3
2018-03-28T04:51:35.660Z,7.4
2018-03-28T04:52:37.043Z,7.6
2018-03-28T04:53:38.424Z,7.5
2018-03-28T04:54:39.809Z,7.4
2018-03-28T04:55:41.192Z,7.5
2018-03-28T04:56:42.568Z,7.5
2018-03-28T04:57:43.950Z,7.6
2018-03-28T04:58:45.332Z,7.4
2018-03-28T04:59:46.710Z,7.6
2018-03-28T05:00:48.079Z,7.6
2018-03-28T05:01:49.505Z,7.6
2018-03-28T05:02:50.887Z,7.7
2018-03-28T05:03:52.265Z,7.8
2018-03-28T05:04:53.643Z,7.7
2018-03-28T05:05:55.023Z,7.6
2018-03-28T05:06:56.406Z,7.7
2018-03-28T05:07:57.781Z,7.6
2018-03-28T05:08:59.171Z,7.7
2018-03-28T05:10:00.587Z,7.8
2018-03-28T05:11:02.010Z,7.9
2018-03-28T05:12:03.394Z,7.7
2018-03-28T05:13:04.776Z,7.7
2018-03-28T05:14:06.157Z,7.7
2018-03-28T05:15:07.527Z,7.8
2018-03-28T05:16:08.915Z,7.7
2018-03-28T05:17:10.305Z,7.8
2018-03-28T05:18:11.704Z,7.7
2018-03-28T05:19:13.090Z,7.8
2018-03-28T05:20:14.471Z,7.7
2018-03-28T05:21:15.846Z,7.8
2018-03-28T05:22:17.275Z,7.8
2018-03-28T05:23:18.607Z,7.9
2018-03-28T05:24:20.042Z,7.9
2018-03-28T05:25:21.419Z,7.9
2018-03-28T05:26:22.806Z,7.9
2018-03-28T05:27:24.182Z,7.9
2018-03-28T05:28:25.563Z,8.0
2018-03-28T05:29:26.948Z,7.9
2018-03-28T05:30:28.329Z,7.9
2018-03-28T05:31:29.799Z,7.9
2018-03-28T05:32:31.180Z,7.9
2018-03-28T05:33:32.661Z,7.9
2018-03-28T05:34:34.047Z,7.8
2018-03-28T05:35:35.438Z,7.9
2018-03-28T05:36:36.819Z,8.1
2018-03-28T05:37:38.221Z,8.1
2018-03-28T05:38:39.593Z,7.9
2018-03-28T05:39:40.977Z,8.0
2018-03-28T05:40:42.356Z,8.0
2018-03-28T05:41:43.733Z,8.0
2018-03-28T05:42:45.242Z,8.0
2018-03-28T05:43:46.577Z,7.9
2018-03-28T05:44:47.959Z,8.1
2018-03-28T05:45:49.343Z,8.1
2018-03-28T05:46:50.728Z,8.1
2018-03-28T05:47:52.119Z,8.1
2018-03-28T05:48:53.510Z,8.0
2018-03-28T05:49:54.883Z,8.1
2018-03-28T05:50:57.207Z,8.0
2018-03-28T05:51:58.591Z,8.1
2018-03-28T05:53:00.019Z,8.1
2018-03-28T05:54:01.497Z,8.2
2018-03-28T05:55:02.884Z,8.1
2018-03-28T05:56:04.261Z,8.3
2018-03-28T05:57:05.643Z,8.1
2018-03-28T05:58:07.027Z,8.1
2018-03-28T05:59:08.409Z,8.2
2018-03-28T06:00:09.800Z,8.2
2018-03-28T06:01:11.189Z,8.1
2018-03-28T06:02:12.572Z,8.3
2018-03-28T06:03:13.971Z,8.3
2018-03-28T06:04:15.351Z,8.3
2018-03-28T06:05:16.744Z,8.3
2018-03-28T06:06:18.129Z,8.3
2018-03-28T06:07:19.517Z,8.3
2018-03-28T06:08:20.895Z,8.3
2018-03-28T06:09:22.284Z,8.3
2018-03-28T06:10:23.684Z,8.3
2018-03-28T06:11:25.073Z,8.5
2018-03-28T06:12:26.456Z,8.4
2018-03-28T06:13:27.835Z,8.5
2018-03-28T06:14:29.306Z,8.5
2018-03-28T06:15:30.688Z,8.5
2018-03-28T06:16:32.071Z,8.5
2018-03-28T06:17:33.463Z,8.6
2018-03-28T06:18:34.840Z,8.5
2018-03-28T06:19:36.233Z,8.6
2018-03-28T06:20:38.721Z,8.6
2018-03-28T06:21:40.107Z,8.5
2018-03-28T06:22:41.490Z,8.5
2018-03-28T06:23:42.876Z,8.6
2018-03-28T06:24:44.260Z,8.5
2018-03-28T06:25:45.689Z,8.5
2018-03-28T06:26:47.565Z,8.5
2018-03-28T06:27:48.983Z,8.6
2018-03-28T06:28:50.365Z,8.7
2018-03-28T06:29:51.776Z,8.5
2018-03-28T06:30:53.147Z,8.6
2018-03-28T06:31:55.931Z,8.4
2018-03-28T06:32:57.302Z,8.7
2018-03-28T06:33:58.696Z,8.7
2018-03-28T06:35:00.156Z,8.7
2018-03-28T06:36:01.593Z,8.7
2018-03-28T06:37:02.984Z,8.9
2018-03-28T06:38:04.372Z,8.8
2018-03-28T06:39:05.755Z,8.8
2018-03-28T06:40:07.136Z,8.9
2018-03-28T06:41:08.531Z,8.8
2018-03-28T06:42:09.909Z,8.9
2018-03-28T06:43:11.301Z,9.0
2018-03-28T06:44:12.689Z,9.0
2018-03-28T06:45:14.086Z,8.9
2018-03-28T06:46:15.474Z,8.9
2018-03-28T06:47:16.895Z,9.0
2018-03-28T06:48:18.243Z,9.0
2018-03-28T06:49:20.208Z,9.0
2018-03-28T06:50:22.373Z,8.9
2018-03-28T06:51:23.766Z,8.9
2018-03-28T06:52:25.838Z,8.9
2018-03-28T06:53:26.603Z,9.0
2018-03-28T06:54:28.005Z,9.0
2018-03-28T06:55:29.392Z,8.9
2018-03-28T06:56:30.771Z,9.1
2018-03-28T06:57:32.160Z,9.2
2018-03-28T06:58:34.246Z,9.2
2018-03-28T06:59:35.633Z,9.2
2018-03-28T07:00:37.029Z,9.3
2018-03-28T07:01:39.230Z,9.3
2018-03-28T07:02:42.219Z,9.3
2018-03-28T07:03:43.724Z,9.4
2018-03-28T07:04:45.109Z,9.4
2018-03-28T07:05:46.498Z,9.4
2018-03-28T07:06:47.896Z,9.5
2018-03-28T07:07:49.280Z,9.4
2018-03-28T07:08:50.674Z,9.4
2018-03-28T07:09:52.061Z,9.4
2018-03-28T07:10:53.446Z,9.4
2018-03-28T07:11:54.838Z,9.4
2018-03-28T07:12:56.228Z,9.3
2018-03-28T07:13:57.677Z,9.6
2018-03-28T07:14:59.063Z,9.6
2018-03-28T07:16:00.447Z,9.7
2018-03-28T07:17:01.899Z,9.6
2018-03-28T07:18:03.287Z,9.5
2018-03-28T07:19:04.687Z,9.5
2018-03-28T07:20:06.082Z,9.6
2018-03-28T07:21:08.385Z,9.7
2018-03-28T07:22:09.772Z,9.6
2018-03-28T07:23:11.158Z,9.7
2018-03-28T07:24:12.545Z,9.7
2018-03-28T07:25:13.929Z,9.8
2018-03-28T07:26:15.314Z,9.8
2018-03-28T07:27:16.693Z,9.7
2018-03-28T07:28:18.097Z,9.8
2018-03-28T07:29:19.480Z,9.8
2018-03-28T07:30:20.867Z,10.0
2018-03-28T07:31:22.250Z,9.9
2018-03-28T07:32:23.742Z,10.0
2018-03-28T07:33:25.154Z,10.0
2018-03-28T07:34:26.587Z,10.1
2018-03-28T07:35:27.991Z,10.2
2018-03-28T07:36:29.376Z,10.1
2018-03-28T07:37:30.765Z,10.0
2018-03-28T07:38:32.159Z,10.1
2018-03-28T07:39:33.671Z,10.1
2018-03-28T07:40:35.863Z,10.0
2018-03-28T07:41:37.254Z,10.1
2018-03-28T07:42:38.645Z,10.0
2018-03-28T07:43:40.062Z,10.1
2018-03-28T07:44:41.431Z,10.1
2018-03-28T07:45:42.854Z,10.0
2018-03-28T07:46:44.238Z,10.1
2018-03-28T07:47:45.626Z,10.1
2018-03-28T07:48:47.056Z,10.1
2018-03-28T07:49:48.438Z,10.1
2018-03-28T07:50:49.871Z,10.2
2018-03-28T07:51:51.271Z,10.2
2018-03-28T07:52:52.674Z,10.2
2018-03-28T07:53:54.060Z,10.2
2018-03-28T07:54:55.452Z,10.3
2018-03-28T07:55:56.863Z,10.3
2018-03-28T07:56:58.278Z,10.2
2018-03-28T07:57:59.680Z,10.3
2018-03-28T07:59:01.071Z,10.3
2018-03-28T08:00:02.492Z,10.3
2018-03-28T08:01:04.715Z,10.4
2018-03-28T08:02:06.198Z,10.4
2018-03-28T08:03:07.589Z,10.4
2018-03-28T08:04:08.993Z,10.3
2018-03-28T08:05:10.394Z,10.2
2018-03-28T08:06:11.778Z,10.2
2018-03-28T08:07:13.183Z,10.4
2018-03-28T08:08:14.594Z,10.4
2018-03-28T08:09:15.984Z,10.3
2018-03-28T08:10:17.411Z,10.2
2018-03-28T08:11:18.804Z,10.2
2018-03-28T08:12:20.206Z,10.1
2018-03-28T08:13:21.692Z,10.1
2018-03-28T08:14:23.090Z,10.1
2018-03-28T08:15:24.480Z,10.2
2018-03-28T08:16:25.873Z,10.2
2018-03-28T08:17:27.260Z,10.2
2018-03-28T08:18:28.680Z,10.1
2018-03-28T08:19:30.071Z,10.3
2018-03-28T08:20:31.460Z,10.4
2018-03-28T08:21:32.853Z,10.4
2018-03-28T08:22:34.289Z,10.3
2018-03-28T08:23:35.681Z,10.2
2018-03-28T08:24:37.071Z,10.2
2018-03-28T08:25:38.516Z,10.4
2018-03-28T08:26:39.851Z,10.3
2018-03-28T08:27:41.255Z,10.4
2018-03-28T08:28:42.639Z,10.5
2018-03-28T08:29:44.029Z,10.2
2018-03-28T08:30:45.414Z,10.3
2018-03-28T08:31:46.810Z,10.4
2018-03-28T08:32:48.247Z,10.5
2018-03-28T08:33:49.662Z,10.6
2018-03-28T08:34:51.046Z,10.6
2018-03-28T08:35:52.452Z,10.7
2018-03-28T08:36:53.833Z,10.9
2018-03-28T08:37:55.221Z,10.9
2018-03-28T08:38:56.620Z,10.7
2018-03-28T08:39:58.015Z,10.8
2018-03-28T08:40:59.466Z,10.8
2018-03-28T08:42:00.788Z,10.8
2018-03-28T08:43:02.180Z,10.9
2018-03-28T08:44:03.567Z,10.8
2018-03-28T08:45:05.068Z,10.9
2018-03-28T08:46:06.461Z,10.9
2018-03-28T08:47:07.854Z,11.0
2018-03-28T08:48:09.248Z,11.1
2018-03-28T08:49:10.642Z,11.2
2018-03-28T08:50:12.030Z,11.1
2018-03-28T08:51:13.455Z,11.3
2018-03-28T08:52:14.923Z,11.4
2018-03-28T08:53:16.276Z,11.6
2018-03-28T08:54:17.796Z,11.6
2018-03-28T08:55:19.194Z,11.7
2018-03-28T08:56:20.577Z,11.6
2018-03-28T08:57:21.968Z,11.4
2018-03-28T08:58:23.365Z,11.2
2018-03-28T08:59:24.776Z,11.5
2018-03-28T09:00:26.207Z,11.2
2018-03-28T09:01:27.594Z,11.4
2018-03-28T09:02:28.985Z,11.4
2018-03-28T09:03:30.374Z,11.5
2018-03-28T09:04:31.784Z,11.4
2018-03-28T09:05:33.194Z,11.6
2018-03-28T09:06:34.589Z,11.7
2018-03-28T09:07:35.985Z,11.9
2018-03-28T09:08:37.392Z,12.0
2018-03-28T09:09:38.840Z,11.9
2018-03-28T09:10:40.246Z,12.0
2018-03-28T09:11:41.654Z,11.9
2018-03-28T09:12:43.056Z,11.6
2018-03-28T09:13:44.460Z,11.9
2018-03-28T09:14:45.892Z,12.0
2018-03-28T09:15:47.289Z,12.1
2018-03-28T09:16:48.676Z,11.9
2018-03-28T09:17:50.078Z,12.0
2018-03-28T09:18:51.464Z,11.7
2018-03-28T09:19:52.844Z,11.9
2018-03-28T09:20:54.244Z,12.1
2018-03-28T09:21:55.631Z,11.9
2018-03-28T09:22:57.032Z,12.0
2018-03-28T09:23:58.435Z,12.1
2018-03-28T09:24:59.863Z,12.2
2018-03-28T09:26:01.305Z,11.8
2018-03-28T09:27:02.678Z,11.8
2018-03-28T09:28:04.077Z,12.0
2018-03-28T09:29:05.457Z,12.1
2018-03-28T09:30:06.849Z,12.4
2018-03-28T09:31:08.234Z,12.5
2018-03-28T09:32:09.623Z,12.5
2018-03-28T09:33:11.017Z,12.5
2018-03-28T09:34:12.408Z,12.6
2018-03-28T09:35:13.807Z,12.7
2018-03-28T09:36:15.188Z,12.7
2018-03-28T09:37:16.619Z,12.7
2018-03-28T09:38:18.034Z,12.5
2018-03-28T09:39:19.433Z,12.6
2018-03-28T09:40:20.817Z,12.6
2018-03-28T09:41:22.198Z,12.5
2018-03-28T09:42:23.588Z,12.7
2018-03-28T09:43:24.987Z,12.4
2018-03-28T09:44:26.398Z,12.2
2018-03-28T09:45:27.784Z,12.3
2018-03-28T09:46:29.235Z,12.2
2018-03-28T09:47:30.634Z,12.2
2018-03-28T09:48:32.025Z,12.1
2018-03-28T09:49:33.416Z,12.2
2018-03-28T09:50:34.819Z,12.4
2018-03-28T09:51:36.203Z,12.6
2018-03-28T09:52:37.600Z,12.7
2018-03-28T09:53:39.002Z,12.5
2018-03-28T09:54:40.388Z,12.2
2018-03-28T09:55:41.780Z,12.2
2018-03-28T09:56:43.174Z,12.2
2018-03-28T09:57:44.677Z,12.1
2018-03-28T09:58:46.071Z,12.2
2018-03-28T09:59:47.468Z,12.1
2018-03-28T10:00:48.864Z,12.1
2018-03-28T10:01:50.254Z,12.2
2018-03-28T10:02:51.644Z,12.4
2018-03-28T10:03:53.041Z,12.5
2018-03-28T10:04:54.420Z,12.6
2018-03-28T10:05:56.536Z,12.6
2018-03-28T10:06:57.941Z,12.8
2018-03-28T10:07:59.403Z,12.6
2018-03-28T10:09:00.873Z,12.7
2018-03-28T10:10:02.263Z,12.7
2018-03-28T10:11:03.652Z,12.6
2018-03-28T10:12:05.053Z,12.5
2018-03-28T10:13:06.446Z,12.5
2018-03-28T10:14:07.836Z,12.6
2018-03-28T10:15:09.223Z,12.7
2018-03-28T10:16:10.621Z,12.7
2018-03-28T10:17:12.028Z,12.6
2018-03-28T10:18:13.450Z,12.9
2018-03-28T10:19:14.850Z,12.9
2018-03-28T10:20:16.248Z,13.1
2018-03-28T10:21:17.687Z,13.2
2018-03-28T10:22:19.072Z,13.2
2018-03-28T10:23:20.471Z,12.9
2018-03-28T10:24:21.894Z,12.7
2018-03-28T10:25:23.280Z,12.8
2018-03-28T10:26:24.683Z,12.6
2018-03-28T10:27:26.074Z,12.5
2018-03-28T10:28:27.473Z,12.5
2018-03-28T10:29:28.938Z,12.7
2018-03-28T10:30:30.340Z,12.9
2018-03-28T10:31:31.732Z,12.7
2018-03-28T10:32:33.133Z,12.9
2018-03-28T10:33:34.517Z,12.9
2018-03-28T10:34:36.067Z,13.1
2018-03-28T10:35:37.541Z,13.8
2018-03-28T10:36:38.934Z,14.1
2018-03-28T10:37:40.332Z,14.3
2018-03-28T10:38:41.727Z,14.3
2018-03-28T10:39:43.124Z,14.6
2018-03-28T10:40:44.593Z,14.2
2018-03-28T10:41:45.983Z,14.3
2018-03-28T10:42:47.381Z,13.7
2018-03-28T10:43:48.775Z,13.8
2018-03-28T10:44:50.178Z,15.2
2018-03-28T10:45:51.565Z,15.8
2018-03-28T10:46:52.981Z,14.2
2018-03-28T10:47:54.383Z,13.7
2018-03-28T10:48:55.758Z,13.6
2018-03-28T10:49:57.151Z,13.2
2018-03-28T10:50:58.621Z,13.3
2018-03-28T10:52:00.033Z,13.5
2018-03-28T10:53:01.421Z,13.7
2018-03-28T10:54:02.828Z,13.6
2018-03-28T10:55:04.230Z,13.7
2018-03-28T10:56:05.635Z,13.7
2018-03-28T10:57:07.022Z,13.5
2018-03-28T10:58:08.421Z,13.4
2018-03-28T10:59:09.824Z,13.3
2018-03-28T11:00:11.221Z,16.0
2018-03-28T11:01:12.664Z,19.2
2018-03-28T11:02:14.056Z,17.2
2018-03-28T11:03:15.454Z,15.3
2018-03-28T11:04:16.852Z,14.6
2018-03-28T11:05:19.161Z,14.0
2018-03-28T11:06:21.401Z,13.7
2018-03-28T11:07:22.795Z,13.7
2018-03-28T11:08:24.217Z,14.1
2018-03-28T11:09:25.620Z,14.9
2018-03-28T11:10:27.015Z,14.5
2018-03-28T11:11:28.409Z,14.1
2018-03-28T11:12:29.800Z,13.7
2018-03-28T11:13:31.185Z,13.6
2018-03-28T11:14:33.059Z,13.7
2018-03-28T11:15:34.471Z,13.5
2018-03-28T11:16:35.855Z,13.3
2018-03-28T11:17:37.262Z,13.2
2018-03-28T11:18:38.649Z,13.3
2018-03-28T11:19:40.046Z,13.3
2018-03-28T11:20:41.457Z,13.2
2018-03-28T11:21:42.912Z,13.3
2018-03-28T11:22:44.297Z,13.3
2018-03-28T11:23:45.703Z,13.3
2018-03-28T11:24:47.100Z,13.2
2018-03-28T11:25:48.604Z,13.3
2018-03-28T11:26:49.994Z,13.3
2018-03-28T11:27:51.402Z,13.4
2018-03-28T11:28:52.797Z,15.3
2018-03-28T11:29:54.192Z,15.0
2018-03-28T11:30:55.635Z,15.1
2018-03-28T11:31:57.038Z,14.1
2018-03-28T11:32:58.437Z,13.9
2018-03-28T11:33:59.826Z,13.9
2018-03-28T11:35:01.238Z,13.9
2018-03-28T11:36:02.631Z,13.7
2018-03-28T11:37:04.044Z,14.1
2018-03-28T11:38:05.487Z,14.4
2018-03-28T11:39:06.881Z,14.9
2018-03-28T11:40:08.314Z,14.3
2018-03-28T11:41:09.719Z,14.1
2018-03-28T11:42:11.118Z,15.3
2018-03-28T11:43:12.560Z,15.0
2018-03-28T11:44:14.089Z,15.1
2018-03-28T11:45:15.475Z,14.9
2018-03-28T11:46:16.933Z,14.7
2018-03-28T11:47:18.336Z,14.9
2018-03-28T11:48:19.723Z,14.8
2018-03-28T11:49:21.156Z,14.7
2018-03-28T11:50:22.600Z,14.3
2018-03-28T11:51:24.001Z,14.1
2018-03-28T11:52:26.349Z,14.2
2018-03-28T11:53:27.743Z,14.1
2018-03-28T11:54:29.146Z,14.1
2018-03-28T11:55:30.531Z,14.0
2018-03-28T11:56:32.491Z,14.0
2018-03-28T11:57:33.892Z,13.8
2018-03-28T11:58:35.291Z,14.3
2018-03-28T11:59:36.763Z,14.1
2018-03-28T12:00:38.163Z,14.1
2018-03-28T12:01:39.561Z,13.6
2018-03-28T12:02:40.951Z,13.4
2018-03-28T12:03:42.345Z,13.5
2018-03-28T12:04:43.759Z,13.4
2018-03-28T12:05:45.147Z,13.3
2018-03-28T12:06:46.538Z,13.4
2018-03-28T12:07:47.933Z,13.5
2018-03-28T12:08:49.339Z,13.3
2018-03-28T12:09:50.725Z,13.3
2018-03-28T12:10:52.121Z,13.1
2018-03-28T12:11:53.516Z,13.0
2018-03-28T12:12:54.974Z,13.1
2018-03-28T12:13:56.393Z,13.0
2018-03-28T12:14:57.785Z,13.0
2018-03-28T12:15:59.290Z,13.0
2018-03-28T12:17:00.619Z,13.0
2018-03-28T12:18:02.009Z,13.0
2018-03-28T12:19:03.396Z,13.3
2018-03-28T12:20:04.892Z,13.3
2018-03-28T12:21:06.340Z,13.3
2018-03-28T12:22:07.742Z,13.1
2018-03-28T12:23:09.131Z,13.1
2018-03-28T12:24:10.527Z,13.1
2018-03-28T12:25:11.957Z,13.0
2018-03-28T12:26:13.320Z,13.0
2018-03-28T12:27:14.706Z,12.9
2018-03-28T12:28:16.112Z,12.9
2018-03-28T12:29:17.508Z,13.0
2018-03-28T12:30:18.911Z,12.9
2018-03-28T12:31:20.428Z,12.9
2018-03-28T12:32:21.828Z,12.8
2018-03-28T12:33:23.225Z,12.9
2018-03-28T12:34:24.618Z,12.7
2018-03-28T12:35:26.018Z,12.8
2018-03-28T12:36:27.415Z,12.7
2018-03-28T12:37:28.806Z,12.6
2018-03-28T12:38:30.199Z,12.6
2018-03-28T12:39:31.587Z,12.7
2018-03-28T12:40:33.069Z,12.8
2018-03-28T12:41:34.473Z,12.8
2018-03-28T12:42:35.863Z,12.6
2018-03-28T12:43:37.249Z,12.8
2018-03-28T12:44:38.641Z,12.9
2018-03-28T12:45:40.037Z,12.9
2018-03-28T12:46:41.425Z,13.1
2018-03-28T12:47:42.826Z,13.4
2018-03-28T12:48:44.231Z,13.5
2018-03-28T12:49:45.655Z,13.4
2018-03-28T12:50:47.046Z,13.3
2018-03-28T12:51:48.519Z,13.8
2018-03-28T12:52:49.911Z,14.0
2018-03-28T12:53:51.325Z,14.3
2018-03-28T12:54:52.700Z,13.8
2018-03-28T12:55:54.158Z,13.6
2018-03-28T12:56:55.513Z,13.3
2018-03-28T12:57:56.906Z,13.3
2018-03-28T12:58:58.323Z,13.3
2018-03-28T12:59:59.699Z,13.3
2018-03-28T13:01:01.077Z,13.1
2018-03-28T13:02:02.474Z,13.1
2018-03-28T13:03:03.860Z,12.9
2018-03-28T13:04:05.327Z,12.9
2018-03-28T13:05:06.726Z,12.9
2018-03-28T13:06:08.110Z,13.1
2018-03-28T13:07:09.504Z,13.2
2018-03-28T13:08:10.918Z,13.0
2018-03-28T13:09:12.307Z,12.9
2018-03-28T13:10:13.709Z,13.0
2018-03-28T13:11:15.105Z,12.9
2018-03-28T13:12:16.563Z,13.1
2018-03-28T13:13:17.953Z,13.1
2018-03-28T13:14:19.376Z,13.3
2018-03-28T13:15:20.759Z,13.3
2018-03-28T13:16:22.178Z,13.3
2018-03-28T13:17:23.557Z,13.5
2018-03-28T13:18:24.963Z,13.5
2018-03-28T13:19:26.356Z,13.3
2018-03-28T13:20:27.757Z,13.2
2018-03-28T13:21:29.143Z,13.1
2018-03-28T13:22:30.546Z,12.9
2018-03-28T13:23:31.953Z,13.0
2018-03-28T13:24:33.343Z,13.0
2018-03-28T13:25:34.798Z,13.3
2018-03-28T13:26:36.197Z,13.2
2018-03-28T13:27:37.595Z,13.2
2018-03-28T13:28:38.996Z,13.2
2018-03-28T13:29:40.412Z,13.1
2018-03-28T13:30:41.803Z,13.2
2018-03-28T13:31:43.210Z,13.2
2018-03-28T13:32:44.686Z,13.0
2018-03-28T13:33:46.073Z,13.3
2018-03-28T13:34:47.459Z,13.4
2018-03-28T13:35:48.859Z,13.3
2018-03-28T13:36:50.247Z,13.0
2018-03-28T13:37:52.116Z,13.0
2018-03-28T13:38:53.504Z,13.0
2018-03-28T13:39:54.903Z,12.9
2018-03-28T13:40:56.896Z,12.7
2018-03-28T13:41:57.695Z,12.9
2018-03-28T13:42:59.162Z,13.1
2018-03-28T13:44:00.554Z,12.9
2018-03-28T13:45:01.946Z,13.0
2018-03-28T13:46:03.337Z,13.2
2018-03-28T13:47:04.728Z,13.4
2018-03-28T13:48:06.260Z,13.4
2018-03-28T13:49:07.771Z,13.2
2018-03-28T13:50:09.223Z,13.1
2018-03-28T13:51:10.610Z,13.3
2018-03-28T13:52:12.008Z,13.5
2018-03-28T13:53:13.432Z,13.7